Time;durP1;ratioP1;P1;durP2;ratioP2;P2;SDS_P1;SDS_P2;PMS_P1;PMS_P2;Temp;Humidity;BMP_temperature;BMP_pressure;BME280_temperature;BME280_humidity;BME280_pressure;Samples;Min_cycle;Max_cycle;Signal;HPM_P1;HPM_P2
2023/03/27 00:01:14;;;;;;;7.13;1.70;;;;;;;13.57;57.67;93058.28;5045342;28;20021;-94
2023/03/27 00:03:39;;;;;;;15.85;1.88;;;;;;;13.59;56.96;93058.72;5045180;28;20429;-93
2023/03/27 00:11:09;;;;;;;7.40;1.58;;;;;;;14.16;55.25;93053.28;5076564;28;20044;-93
2023/03/27 00:13:35;;;;;;;10.25;1.60;;;;;;;14.27;54.92;93057.03;5044926;28;20047;-94
2023/03/27 00:16:01;;;;;;;9.57;1.85;;;;;;;14.33;54.78;93057.63;5044816;28;20026;-94
2023/03/27 00:21:49;;;;;;;7.80;2.40;;;;;;;13.45;57.38;93051.06;5078874;28;20078;-94
2023/03/27 00:24:14;;;;;;;12.35;1.70;;;;;;;13.90;56.02;93041.06;5044590;28;20025;-93
2023/03/27 00:26:41;;;;;;;9.93;1.70;;;;;;;13.67;57.25;93044.75;5045021;28;20150;-94
2023/03/27 00:29:07;;;;;;;6.20;1.67;;;;;;;14.46;55.01;93046.03;5044527;28;20141;-93
2023/03/27 00:31:32;;;;;;;10.50;1.67;;;;;;;14.00;55.67;93041.44;5044395;28;20034;-94
2023/03/27 00:33:58;;;;;;;8.90;1.73;;;;;;;13.70;56.04;93028.31;5044378;28;20020;-93
2023/03/27 00:36:23;;;;;;;13.52;2.10;;;;;;;13.94;56.52;93034.84;5044370;28;20016;-94
2023/03/27 00:38:51;;;;;;;8.70;1.75;;;;;;;13.95;55.70;93033.75;5044693;28;20024;-94
2023/03/27 00:41:18;;;;;;;14.20;2.10;;;;;;;14.02;55.34;93029.81;5044576;28;20371;-94
2023/03/27 00:43:46;;;;;;;9.25;1.70;;;;;;;14.14;55.14;93040.41;5044326;28;20460;-93
2023/03/27 00:46:39;;;;;;;8.43;1.50;;;;;;;14.41;54.92;93033.06;5044887;28;20059;-94
2023/03/27 00:49:07;;;;;;;9.75;1.90;;;;;;;14.35;54.45;93037.00;5044335;28;20025;-94
2023/03/27 00:51:35;;;;;;;5.68;1.63;;;;;;;14.24;55.35;93032.13;5044044;28;20028;-94
2023/03/27 00:54:01;;;;;;;9.32;1.55;;;;;;;14.04;54.88;93027.63;5044020;28;20024;-94
2023/03/27 00:56:26;;;;;;;4.78;1.65;;;;;;;14.44;53.69;93029.78;5044338;28;20024;-94
2023/03/27 00:58:54;;;;;;;7.35;1.77;;;;;;;15.04;51.85;93026.13;5043858;28;20028;-94
2023/03/27 01:01:22;;;;;;;7.30;2.30;;;;;;;14.10;54.09;93029.00;5043774;28;20035;-94
2023/03/27 01:03:49;;;;;;;9.32;1.38;;;;;;;14.70;53.67;93042.75;5044019;28;20064;-93
2023/03/27 01:06:15;;;;;;;6.03;1.65;;;;;;;14.46;52.11;93038.13;5043989;28;20028;-93
2023/03/27 01:08:43;;;;;;;5.38;1.55;;;;;;;14.92;52.27;93040.81;5043949;28;20070;-94
2023/03/27 01:11:20;;;;;;;11.18;1.70;;;;;;;14.79;51.63;93029.50;5044024;28;20384;-94
2023/03/27 01:13:49;;;;;;;5.82;1.30;;;;;;;14.31;51.71;93015.81;5060476;28;20028;-94
2023/03/27 01:16:24;;;;;;;8.52;1.70;;;;;;;14.09;51.68;93009.78;5060296;28;20032;-94
2023/03/27 01:19:15;;;;;;;9.82;2.05;;;;;;;14.24;51.61;93011.06;5043554;28;20028;-93
2023/03/27 01:21:54;;;;;;;5.22;1.42;;;;;;;14.35;51.46;93008.03;5060575;28;20039;-94
2023/03/27 01:25:02;;;;;;;6.60;1.65;;;;;;;14.90;49.31;92995.56;5060151;28;20039;-93
2023/03/27 01:28:01;;;;;;;3.10;1.08;;;;;;;14.90;48.55;92995.56;5059973;28;20039;-94
2023/03/27 01:30:35;;;;;;;6.50;1.58;;;;;;;14.66;49.13;92996.25;5060667;28;20028;-93
2023/03/27 01:33:42;;;;;;;7.32;1.67;;;;;;;14.98;47.54;92986.75;5043660;28;20078;-94
2023/03/27 01:36:17;;;;;;;7.38;1.20;;;;;;;15.49;47.51;92995.44;4961020;28;20034;-93
2023/03/27 01:39:01;;;;;;;10.13;1.83;;;;;;;15.93;46.32;93002.78;5049791;28;20292;-94
2023/03/27 01:41:31;;;;;;;7.30;1.20;;;;;;;15.53;46.81;93004.25;5076897;28;20032;-94
2023/03/27 01:44:00;;;;;;;7.88;1.60;;;;;;;14.80;47.50;93002.03;5043423;28;20033;-93
2023/03/27 01:46:33;;;;;;;8.00;1.13;;;;;;;14.51;48.05;93005.53;5043276;28;20028;-93
2023/03/27 01:49:03;;;;;;;9.35;1.48;;;;;;;14.44;48.15;93002.69;5043347;28;20059;-93
2023/03/27 01:51:37;;;;;;;3.55;1.08;;;;;;;14.75;47.57;92998.84;5043330;28;20063;-94
2023/03/27 01:54:09;;;;;;;7.57;1.20;;;;;;;15.33;45.99;92995.34;5043051;28;20028;-94
2023/03/27 01:56:39;;;;;;;6.03;1.50;;;;;;;15.38;46.17;93003.03;5043041;28;20353;-93
2023/03/27 01:59:15;;;;;;;4.43;1.10;;;;;;;14.58;46.13;93011.06;5043302;28;20079;-94
2023/03/27 02:01:44;;;;;;;7.32;1.30;;;;;;;14.62;48.60;93006.69;5043178;28;20024;-93
2023/03/27 02:04:14;;;;;;;5.10;0.90;;;;;;;14.71;46.24;93001.31;5043233;28;20032;-94
2023/03/27 02:06:57;;;;;;;5.13;0.98;;;;;;;15.56;45.54;92993.03;5043070;28;20506;-94
2023/03/27 02:09:32;;;;;;;5.13;1.08;;;;;;;15.43;44.87;92988.88;5043483;28;20170;-94
2023/03/27 02:11:57;;;;;;;4.60;0.88;;;;;;;15.40;44.38;92991.06;5042947;28;20028;-94
2023/03/27 02:14:27;;;;;;;2.65;1.00;;;;;;;15.42;44.04;92990.72;5059343;28;20452;-94
2023/03/27 02:16:57;;;;;;;2.67;1.08;;;;;;;15.52;43.30;92992.16;5043261;28;20028;-93
2023/03/27 02:19:29;;;;;;;3.25;0.75;;;;;;;15.52;43.46;92984.25;5042834;28;20035;-94
2023/03/27 02:21:55;;;;;;;6.07;1.50;;;;;;;15.33;43.23;92996.13;5043010;28;20028;-93
2023/03/27 02:24:21;;;;;;;4.13;1.08;;;;;;;15.26;43.95;92986.13;5043113;28;20307;-94
2023/03/27 02:26:50;;;;;;;5.75;1.13;;;;;;;15.32;44.83;92991.94;5043188;28;20032;-93
2023/03/27 02:29:36;;;;;;;3.67;1.02;;;;;;;14.94;46.42;92993.03;5042869;28;20062;-93
2023/03/27 02:32:41;;;;;;;4.45;0.90;;;;;;;15.07;45.80;92991.19;5010019;28;20033;-93
2023/03/27 02:35:32;;;;;;;5.93;1.10;;;;;;;14.66;47.81;92996.25;5043096;28;20035;-94
2023/03/27 02:38:40;;;;;;;9.43;1.20;;;;;;;14.56;46.58;93000.06;5043091;28;20028;-94
2023/03/27 02:41:30;;;;;;;4.00;1.10;;;;;;;14.28;48.70;92990.88;4995635;28;20040;-93
2023/03/27 02:44:15;;;;;;;2.78;1.05;;;;;;;14.17;48.02;92994.25;4998068;28;20357;-94
2023/03/27 02:46:51;;;;;;;11.55;1.35;;;;;;;14.28;48.72;92985.59;5042768;28;20032;-93
2023/03/27 02:49:25;;;;;;;8.57;1.42;;;;;;;14.27;49.36;93007.00;5042526;28;20032;-93
2023/03/27 02:51:56;;;;;;;2.83;1.17;;;;;;;14.33;49.77;93000.44;5044721;28;20039;-94
2023/03/27 02:54:26;;;;;;;6.93;1.30;;;;;;;13.85;52.38;93008.56;5046242;28;20032;-93
2023/03/27 02:56:55;;;;;;;2.65;0.85;;;;;;;13.85;49.82;93013.84;5046233;28;20025;-94
2023/03/27 02:59:26;;;;;;;3.00;1.25;;;;;;;13.92;49.45;93007.28;5046569;28;20024;-94
2023/03/27 03:01:52;;;;;;;12.35;1.35;;;;;;;13.88;50.18;93015.03;5063004;28;20032;-93
2023/03/27 03:04:27;;;;;;;2.65;1.15;;;;;;;14.16;49.21;93011.88;5046105;28;20037;-94
2023/03/27 03:06:53;;;;;;;5.57;1.10;;;;;;;13.56;50.87;93007.53;5046325;28;20056;-93
2023/03/27 03:09:20;;;;;;;3.63;0.95;;;;;;;13.20;51.26;93000.09;5046270;28;20322;-93
2023/03/27 03:11:51;;;;;;;2.67;1.33;;;;;;;13.70;48.96;93007.28;5046139;28;20028;-94
2023/03/27 03:14:27;;;;;;;3.83;0.98;;;;;;;13.58;48.94;93004.56;5046472;28;20376;-93
2023/03/27 03:16:52;;;;;;;5.50;1.08;;;;;;;13.35;49.30;93007.47;5046464;28;20117;-93
2023/03/27 03:19:18;;;;;;;3.95;0.80;;;;;;;13.41;47.39;93011.44;5045774;28;20032;-94
2023/03/27 03:21:43;;;;;;;6.53;0.73;;;;;;;13.74;42.55;93015.31;5045939;28;20024;-94
2023/03/27 03:24:09;;;;;;;3.25;1.00;;;;;;;13.35;48.16;93025.09;5046139;28;20036;-93
2023/03/27 03:26:34;;;;;;;5.60;1.10;;;;;;;13.51;45.50;93020.84;5045688;28;20028;-94
2023/03/27 03:29:00;;;;;;;2.72;0.70;;;;;;;13.69;46.03;93026.78;5045770;28;20028;-94
2023/03/27 03:31:26;;;;;;;3.92;0.73;;;;;;;13.70;44.65;93027.53;5045899;28;20319;-93
2023/03/27 03:33:51;;;;;;;5.55;0.90;;;;;;;13.34;46.82;93026.97;5045809;28;20031;-93
2023/03/27 03:36:16;;;;;;;6.63;1.00;;;;;;;13.38;47.43;93033.13;5062406;28;20028;-93
2023/03/27 03:42:04;;;;;;;2.55;1.10;;;;;;;13.16;49.63;93042.03;5079700;28;20035;-93
2023/03/27 03:44:30;;;;;;;1.40;0.70;;;;;;;13.35;49.06;93041.66;5045416;28;20127;-93
2023/03/27 03:46:55;;;;;;;5.40;1.15;;;;;;;12.86;50.11;93040.13;5045409;28;20025;-93
2023/03/27 03:49:21;;;;;;;6.35;1.20;;;;;;;12.87;52.22;93046.16;5045428;28;20020;-93
2023/03/27 03:51:46;;;;;;;6.13;0.90;;;;;;;12.64;51.02;93053.47;5045826;28;20025;-94
2023/03/27 03:54:12;;;;;;;3.25;1.15;;;;;;;12.58;49.11;93053.63;5045255;28;20031;-94
2023/03/27 03:56:40;;;;;;;6.32;1.00;;;;;;;12.80;48.68;93057.16;5045282;28;20056;-93
2023/03/27 03:59:10;;;;;;;4.22;0.82;;;;;;;12.66;49.19;93053.94;5045505;28;20024;-93
2023/03/27 04:01:36;;;;;;;1.75;0.60;;;;;;;12.64;45.87;93053.47;5045095;28;20024;-93
2023/03/27 04:04:02;;;;;;;3.97;0.70;;;;;;;12.87;47.79;93059.31;5061253;28;20040;-93
2023/03/27 04:06:29;;;;;;;3.65;0.70;;;;;;;12.50;47.52;93058.91;5045160;28;20028;-93
2023/03/27 04:08:55;;;;;;;3.95;0.90;;;;;;;12.73;46.56;93056.84;5045127;28;20059;-94
2023/03/27 04:11:21;;;;;;;1.33;0.90;;;;;;;12.55;46.90;93066.59;5044699;28;20087;-93
2023/03/27 04:13:46;;;;;;;2.90;0.73;;;;;;;12.53;46.49;93064.31;5061538;28;20426;-94
2023/03/27 04:16:12;;;;;;;2.72;0.73;;;;;;;12.72;47.25;93061.34;5044854;28;20089;-93
2023/03/27 04:18:39;;;;;;;5.32;1.13;;;;;;;12.53;47.86;93058.25;5045044;28;20060;-94
2023/03/27 04:21:13;;;;;;;6.85;1.33;;;;;;;12.55;47.59;93063.97;5045347;28;20035;-93
2023/03/27 04:23:41;;;;;;;2.97;0.90;;;;;;;12.48;46.17;93067.09;5045608;28;20044;-93
2023/03/27 04:26:07;;;;;;;3.95;0.70;;;;;;;12.32;46.35;93077.28;5044525;28;20039;-94
2023/03/27 04:28:33;;;;;;;3.60;0.80;;;;;;;12.37;45.04;93073.75;5044575;28;20036;-94
2023/03/27 04:30:59;;;;;;;2.45;0.50;;;;;;;12.50;43.64;93075.44;5044910;28;20040;-92
2023/03/27 04:33:25;;;;;;;3.15;0.73;;;;;;;12.54;39.89;93078.97;5045225;28;20033;-93
2023/03/27 04:35:51;;;;;;;1.30;0.65;;;;;;;12.67;40.07;93085.13;5044335;28;20039;-92
2023/03/27 04:38:18;;;;;;;2.92;0.60;;;;;;;12.79;39.27;93087.16;5044627;28;20032;-93
2023/03/27 04:40:44;;;;;;;0.57;0.40;;;;;;;12.87;38.02;93093.47;5044490;28;20028;-92
2023/03/27 04:43:12;;;;;;;3.15;0.55;;;;;;;12.97;37.24;93095.00;5044136;28;20345;-93
2023/03/27 04:45:37;;;;;;;1.98;0.50;;;;;;;12.96;35.35;93094.22;5060573;28;20036;-93
2023/03/27 04:48:04;;;;;;;2.17;0.68;;;;;;;13.23;37.79;93100.16;5044490;28;20445;-93
2023/03/27 04:50:30;;;;;;;1.65;0.55;;;;;;;13.07;37.45;93110.44;5044065;28;20032;-92
2023/03/27 04:52:58;;;;;;;1.00;0.45;;;;;;;13.10;36.26;93107.19;5043918;28;20028;-94
2023/03/27 04:55:25;;;;;;;0.73;0.38;;;;;;;12.96;36.37;93099.47;5045408;28;20032;-94
2023/03/27 04:57:52;;;;;;;1.38;0.80;;;;;;;13.08;35.30;93098.84;5061155;28;20035;-94
2023/03/27 05:00:18;;;;;;;0.68;0.52;;;;;;;13.17;36.28;93114.59;5044266;28;20028;-93
2023/03/27 05:02:47;;;;;;;0.65;0.40;;;;;;;13.07;33.45;93115.69;5044665;28;20028;-94
2023/03/27 05:05:13;;;;;;;2.10;0.40;;;;;;;13.07;34.12;93107.81;5044376;28;20461;-94
2023/03/27 05:07:39;;;;;;;1.73;0.70;;;;;;;12.73;32.81;93119.91;5043909;28;20028;-93
2023/03/27 05:10:05;;;;;;;2.67;0.65;;;;;;;13.38;33.82;93106.78;5062796;28;20043;-95
2023/03/27 05:12:31;;;;;;;0.50;0.30;;;;;;;13.75;32.98;93118.72;5044783;28;20025;-95
2023/03/27 05:14:58;;;;;;;0.85;0.30;;;;;;;13.65;32.13;93120.63;5044118;28;20491;-95
2023/03/27 05:17:25;;;;;;;0.40;0.38;;;;;;;13.13;34.07;93135.47;5047070;28;20028;-94
2023/03/27 05:19:51;;;;;;;0.60;0.32;;;;;;;12.99;32.61;93127.00;5046473;28;20097;-94
2023/03/27 05:22:23;;;;;;;0.55;0.30;;;;;;;13.59;33.94;93131.66;5045667;28;20067;-94
2023/03/27 05:24:52;;;;;;;1.30;0.40;;;;;;;13.74;33.28;93143.50;5049266;28;20378;-94
2023/03/27 05:27:18;;;;;;;0.45;0.25;;;;;;;13.50;32.21;93140.34;5047107;28;20024;-95
2023/03/27 05:29:43;;;;;;;1.02;0.40;;;;;;;13.61;34.44;93135.50;5043735;28;20028;-93
2023/03/27 05:32:09;;;;;;;1.17;0.57;;;;;;;13.13;32.14;93137.34;5043596;28;20123;-94
2023/03/27 05:34:37;;;;;;;0.65;0.30;;;;;;;12.89;33.91;93138.63;5043470;28;20035;-93
2023/03/27 05:37:04;;;;;;;4.28;0.70;;;;;;;12.91;33.45;93130.41;5044210;28;20159;-95
2023/03/27 05:39:30;;;;;;;0.75;0.32;;;;;;;13.87;32.07;93137.25;5043711;28;20028;-94
2023/03/27 05:41:55;;;;;;;4.32;0.65;;;;;;;13.92;33.95;93147.59;5043153;28;20178;-94
2023/03/27 05:44:22;;;;;;;1.42;0.43;;;;;;;13.57;33.30;93140.63;5043246;28;20036;-94
2023/03/27 05:46:47;;;;;;;1.02;0.35;;;;;;;13.54;32.86;93148.38;5053558;28;20046;-91
2023/03/27 05:49:14;;;;;;;0.55;0.30;;;;;;;14.25;33.40;93157.47;5042810;28;20040;-90
2023/03/27 05:51:40;;;;;;;0.35;0.20;;;;;;;13.14;32.79;93152.78;5042848;28;20031;-90
2023/03/27 05:54:05;;;;;;;3.60;0.20;;;;;;;13.81;32.07;93152.44;5042641;28;20485;-91
2023/03/27 05:56:31;;;;;;;1.35;0.50;;;;;;;13.83;32.94;93152.13;5059116;28;20119;-90
2023/03/27 05:58:56;;;;;;;1.38;0.30;;;;;;;13.74;32.03;93149.53;5059356;28;20032;-90
2023/03/27 06:01:22;;;;;;;0.60;0.20;;;;;;;13.41;33.43;93152.72;5059117;28;20055;-90
2023/03/27 06:03:48;;;;;;;1.35;0.30;;;;;;;14.48;33.22;93159.03;5042738;28;20028;-92
2023/03/27 06:06:14;;;;;;;1.00;0.40;;;;;;;14.10;32.97;93165.94;5042928;28;20032;-91
2023/03/27 06:08:40;;;;;;;0.15;0.15;;;;;;;14.93;33.79;93176.84;5042692;28;20028;-89
2023/03/27 06:11:09;;;;;;;0.98;0.50;;;;;;;13.45;33.14;93164.19;5042778;28;20035;-92
2023/03/27 06:13:35;;;;;;;1.23;0.30;;;;;;;14.40;33.28;93171.94;5042686;28;20035;-92
2023/03/27 06:16:02;;;;;;;0.20;0.20;;;;;;;14.77;33.46;93174.03;5042574;28;20028;-91
2023/03/27 06:18:27;;;;;;;0.20;0.20;;;;;;;14.66;31.47;93170.22;5059177;28;20031;-92
2023/03/27 06:20:54;;;;;;;0.20;0.20;;;;;;;14.44;34.48;93173.97;5042869;28;20028;-93
2023/03/27 06:23:19;;;;;;;0.25;0.10;;;;;;;14.63;33.34;93166.38;5042469;28;20499;-92
2023/03/27 06:25:46;;;;;;;0.20;0.20;;;;;;;14.55;36.11;93180.38;5042883;28;20059;-92
2023/03/27 06:28:12;;;;;;;0.52;0.22;;;;;;;14.98;33.47;93178.53;5046782;28;20035;-92
2023/03/27 06:30:37;;;;;;;0.65;0.20;;;;;;;14.90;31.91;93176.72;5046636;28;20024;-90
2023/03/27 06:33:04;;;;;;;0.43;0.28;;;;;;;15.32;33.79;93195.13;5046539;28;20426;-91
2023/03/27 06:35:31;;;;;;;1.35;0.45;;;;;;;15.23;33.02;93191.81;5046649;28;20421;-92
2023/03/27 06:38:01;;;;;;;0.30;0.13;;;;;;;14.92;31.29;93190.34;5046433;28;20028;-91
2023/03/27 06:40:27;;;;;;;0.95;0.30;;;;;;;14.74;31.04;93195.78;5046882;28;20082;-89
2023/03/27 06:42:54;;;;;;;0.35;0.22;;;;;;;15.10;31.57;93196.25;5063074;28;20032;-93
2023/03/27 06:45:21;;;;;;;0.50;0.30;;;;;;;15.31;34.14;93208.66;5046355;28;20105;-92
2023/03/27 06:47:51;;;;;;;0.17;0.15;;;;;;;15.66;32.84;93210.94;5046276;28;20036;-92
2023/03/27 06:50:18;;;;;;;0.50;0.30;;;;;;;15.27;31.55;93209.28;5046185;28;20028;-91
2023/03/27 06:52:44;;;;;;;1.15;0.40;;;;;;;15.16;30.42;93218.72;5046391;28;20032;-90
2023/03/27 06:55:09;;;;;;;0.20;0.20;;;;;;;15.54;30.92;93207.16;5046053;28;20077;-92
2023/03/27 06:57:35;;;;;;;0.10;0.10;;;;;;;14.91;30.69;93209.91;5046079;28;20036;-91
2023/03/27 07:00:10;;;;;;;0.70;0.20;;;;;;;15.89;31.73;93215.81;5045912;28;20028;-92
2023/03/27 07:02:35;;;;;;;0.30;0.30;;;;;;;15.40;32.82;93227.78;5046952;28;20051;-90
2023/03/27 07:05:01;;;;;;;0.32;0.25;;;;;;;16.10;32.99;93221.78;5046139;28;20032;-91
2023/03/27 07:07:27;;;;;;;0.30;0.20;;;;;;;16.58;30.50;93229.28;5046309;28;20028;-92
2023/03/27 07:09:52;;;;;;;0.40;0.20;;;;;;;15.67;32.27;93239.66;5045709;28;20024;-91
2023/03/27 07:12:18;;;;;;;0.47;0.30;;;;;;;15.15;32.46;93229.59;5046400;28;20127;-91
2023/03/27 07:14:43;;;;;;;0.32;0.20;;;;;;;15.10;32.10;93225.28;5045517;28;20032;-91
2023/03/27 07:17:09;;;;;;;0.90;0.20;;;;;;;15.75;32.47;93245.16;5045754;28;20025;-91
2023/03/27 07:19:34;;;;;;;0.95;0.35;;;;;;;15.46;33.03;93237.06;5045703;28;20095;-92
2023/03/27 07:21:59;;;;;;;0.20;0.20;;;;;;;14.90;31.92;93237.38;5045488;28;20081;-92
2023/03/27 07:24:25;;;;;;;0.73;0.20;;;;;;;16.07;31.85;93248.88;5062029;28;20036;-92
2023/03/27 07:26:50;;;;;;;0.22;0.22;;;;;;;15.59;30.87;93245.78;5061977;28;20035;-92
2023/03/27 07:29:16;;;;;;;0.50;0.20;;;;;;;16.15;31.62;93239.31;5062527;28;20025;-91
2023/03/27 07:31:43;;;;;;;1.30;0.22;;;;;;;15.88;30.96;93249.38;5045730;28;20027;-92
2023/03/27 07:34:09;;;;;;;0.15;0.15;;;;;;;16.17;30.32;93242.38;5045608;28;20122;-92
2023/03/27 07:36:35;;;;;;;0.10;0.10;;;;;;;15.86;30.84;93237.59;5045354;28;20031;-93
2023/03/27 07:39:01;;;;;;;0.40;0.28;;;;;;;15.36;31.33;93253.31;5060878;28;20030;-91
2023/03/27 07:41:28;;;;;;;0.82;0.32;;;;;;;15.83;30.98;93258.28;5045153;28;20131;-92
2023/03/27 07:43:55;;;;;;;0.52;0.25;;;;;;;16.42;31.55;93252.19;5045591;28;20388;-91
2023/03/27 07:46:22;;;;;;;0.10;0.10;;;;;;;15.92;31.64;93242.38;5045155;28;20032;-90
2023/03/27 07:48:49;;;;;;;0.38;0.22;;;;;;;16.60;33.56;93245.56;5045433;28;20024;-90
2023/03/27 07:51:16;;;;;;;0.10;0.10;;;;;;;16.07;31.24;93248.88;5061702;28;20073;-91
2023/03/27 07:53:42;;;;;;;0.10;0.10;;;;;;;17.33;32.38;93255.56;5045176;28;20035;-92
2023/03/27 07:56:09;;;;;;;0.70;0.10;;;;;;;16.69;31.25;93242.81;5061278;28;20029;-93
2023/03/27 07:58:35;;;;;;;0.00;0.00;;;;;;;17.22;33.41;93252.63;5045110;28;20039;-92
2023/03/27 08:01:03;;;;;;;1.58;0.10;;;;;;;17.32;30.76;93262.72;5061717;28;20024;-92
2023/03/27 08:03:29;;;;;;;1.60;0.20;;;;;;;16.44;32.76;93268.50;5045147;28;20078;-90
2023/03/27 08:05:56;;;;;;;0.30;0.20;;;;;;;16.25;31.67;93270.59;5044771;28;20040;-92
2023/03/27 08:08:22;;;;;;;0.38;0.10;;;;;;;17.16;33.79;93278.56;5044744;28;20082;-92
2023/03/27 08:10:49;;;;;;;2.63;0.10;;;;;;;16.89;31.94;93266.78;5061133;28;20036;-91
2023/03/27 08:13:15;;;;;;;0.20;0.20;;;;;;;16.94;31.21;93298.31;5061314;28;20036;-90
2023/03/27 08:15:40;;;;;;;1.15;0.30;;;;;;;16.67;32.81;93285.44;5044618;28;20087;-93
2023/03/27 08:18:07;;;;;;;0.13;0.10;;;;;;;16.72;30.83;93273.09;5044619;28;20028;-92
2023/03/27 08:20:33;;;;;;;2.88;0.10;;;;;;;17.51;30.71;93293.13;5044765;28;20366;-93
2023/03/27 08:22:59;;;;;;;0.05;0.05;;;;;;;16.78;31.35;93271.75;5044493;28;20089;-91
2023/03/27 08:25:26;;;;;;;0.47;0.20;;;;;;;17.05;32.24;93274.84;5044702;28;20040;-92
2023/03/27 08:27:52;;;;;;;0.82;0.15;;;;;;;17.35;32.76;93279.81;5044670;28;20068;-93
2023/03/27 08:30:19;;;;;;;2.95;0.10;;;;;;;17.10;31.10;93256.84;5044768;28;20409;-93
2023/03/27 08:32:44;;;;;;;0.93;0.10;;;;;;;17.26;29.81;93281.81;5044313;28;20093;-92
2023/03/27 08:35:10;;;;;;;0.10;0.10;;;;;;;17.57;30.44;93285.66;5044534;28;20036;-93
2023/03/27 08:37:36;;;;;;;0.20;0.15;;;;;;;17.32;30.81;93296.38;5044145;28;20028;-92
2023/03/27 08:40:07;;;;;;;0.00;0.00;;;;;;;18.11;32.07;93292.41;5060637;28;20039;-93
2023/03/27 08:42:36;;;;;;;1.55;0.20;;;;;;;18.41;30.55;93309.75;5044843;28;20158;-93
2023/03/27 08:45:08;;;;;;;1.23;0.20;;;;;;;18.00;30.62;93307.22;5044508;28;20422;-93
2023/03/27 08:47:37;;;;;;;0.10;0.10;;;;;;;17.61;29.56;93297.16;5044072;28;20028;-92
2023/03/27 08:50:14;;;;;;;0.43;0.13;;;;;;;17.45;30.45;93289.94;5043927;28;20392;-91
2023/03/27 08:52:41;;;;;;;0.32;0.10;;;;;;;18.14;31.29;93291.72;5043615;28;20093;-91
2023/03/27 08:55:21;;;;;;;1.02;0.20;;;;;;;18.27;30.65;93310.19;5060379;28;20078;-90
2023/03/27 08:57:49;;;;;;;0.10;0.10;;;;;;;18.57;33.15;93315.06;5060155;28;20032;-91
2023/03/27 09:00:30;;;;;;;0.10;0.10;;;;;;;19.11;31.05;93315.50;5044134;28;20067;-92
2023/03/27 09:03:02;;;;;;;0.10;0.10;;;;;;;18.31;31.58;93319.78;5043759;28;20028;-91
2023/03/27 09:05:39;;;;;;;2.17;0.20;;;;;;;18.71;29.94;93330.53;5043483;28;20032;-90
2023/03/27 09:08:26;;;;;;;0.10;0.10;;;;;;;18.93;32.18;93326.47;5060093;28;20028;-91
2023/03/27 09:11:20;;;;;;;0.43;0.20;;;;;;;18.25;29.93;93331.72;5060236;28;20347;-92
2023/03/27 09:13:50;;;;;;;0.20;0.10;;;;;;;18.40;31.08;93332.84;5060024;28;20028;-93
2023/03/27 09:16:18;;;;;;;0.32;0.15;;;;;;;18.53;31.09;93335.44;5059804;28;20078;-91
2023/03/27 09:22:23;;;;;;;0.10;0.10;;;;;;;19.07;28.84;93345.38;5077322;28;20039;-91
2023/03/27 09:24:51;;;;;;;0.17;0.17;;;;;;;18.13;29.11;93337.09;5059551;28;20056;-92
2023/03/27 09:27:21;;;;;;;1.83;0.20;;;;;;;18.13;28.16;93351.13;5043294;28;20028;-93
2023/03/27 09:33:54;;;;;;;0.10;0.10;;;;;;;18.93;31.48;93353.78;5035778;28;20043;-92
2023/03/27 09:40:01;;;;;;;0.20;0.20;;;;;;;19.34;28.34;93350.13;5035234;28;20060;-92
2023/03/27 09:43:09;;;;;;;0.50;0.30;;;;;;;18.26;28.95;93372.28;5019300;28;20108;-91
2023/03/27 09:45:37;;;;;;;0.25;0.20;;;;;;;17.16;29.85;93365.91;5035028;28;20036;-91
2023/03/27 09:48:04;;;;;;;0.57;0.20;;;;;;;18.19;31.55;93375.50;5039328;28;20067;-93
2023/03/27 09:50:41;;;;;;;0.20;0.10;;;;;;;18.08;28.78;93380.53;5042873;28;20032;-91
2023/03/27 09:53:12;;;;;;;0.10;0.10;;;;;;;18.56;28.35;93379.81;5059895;28;20028;-91
2023/03/27 09:55:49;;;;;;;0.10;0.10;;;;;;;19.75;29.25;93384.34;5042828;28;20430;-92
2023/03/27 09:58:27;;;;;;;0.45;0.20;;;;;;;19.24;28.40;93385.97;5059432;28;20024;-92
2023/03/27 10:01:09;;;;;;;0.10;0.10;;;;;;;19.89;27.37;93416.50;5058849;28;20024;-92
2023/03/27 10:03:56;;;;;;;0.30;0.20;;;;;;;19.32;29.90;93389.53;5042548;28;20025;-92
2023/03/27 10:06:40;;;;;;;0.68;0.20;;;;;;;19.05;29.37;93384.03;5042676;28;20193;-93
2023/03/27 10:09:33;;;;;;;0.88;0.10;;;;;;;19.36;29.79;93393.78;5043053;28;20477;-91
2023/03/27 10:12:15;;;;;;;0.20;0.20;;;;;;;19.80;28.57;93397.38;5039288;28;20032;-93
2023/03/27 10:14:46;;;;;;;0.10;0.10;;;;;;;19.25;27.40;93398.13;5042642;28;20024;-92
2023/03/27 10:17:33;;;;;;;1.17;0.20;;;;;;;19.41;29.25;93395.41;5042994;28;20052;-91
2023/03/27 10:20:17;;;;;;;5.68;0.10;;;;;;;19.05;27.58;93399.94;5042647;28;20097;-92
2023/03/27 10:23:09;;;;;;;0.20;0.10;;;;;;;18.54;29.67;93376.75;5042833;28;20028;-91
2023/03/27 10:25:49;;;;;;;0.80;0.22;;;;;;;18.60;28.17;93388.63;5058684;28;20063;-91
2023/03/27 10:28:14;;;;;;;0.10;0.10;;;;;;;17.74;31.96;93401.16;5042373;28;20055;-91
2023/03/27 10:30:40;;;;;;;1.20;0.22;;;;;;;18.13;29.67;93398.06;5059036;28;20064;-92
2023/03/27 10:33:06;;;;;;;0.20;0.10;;;;;;;19.35;28.05;93405.53;5042749;28;20396;-91
2023/03/27 10:35:37;;;;;;;0.20;0.10;;;;;;;19.66;30.13;93410.38;5042393;28;20032;-92
2023/03/27 10:38:06;;;;;;;1.08;0.20;;;;;;;20.33;27.27;93404.84;5042575;28;20066;-92
2023/03/27 10:40:36;;;;;;;5.22;0.50;;;;;;;19.36;27.04;93425.66;5042208;28;20437;-92
2023/03/27 10:43:15;;;;;;;0.15;0.13;;;;;;;19.26;28.80;93410.28;5059128;28;20367;-94
2023/03/27 10:45:52;;;;;;;0.57;0.13;;;;;;;20.01;29.44;93409.56;5042663;28;20035;-92
2023/03/27 10:48:32;;;;;;;0.10;0.10;;;;;;;19.83;25.90;93430.44;5042321;28;20028;-94
2023/03/27 10:51:02;;;;;;;1.08;0.30;;;;;;;19.91;26.36;93416.94;5058917;28;20062;-94
2023/03/27 10:53:36;;;;;;;2.38;0.30;;;;;;;19.39;28.41;93450.00;5058952;28;20016;-92
2023/03/27 10:56:23;;;;;;;0.40;0.10;;;;;;;20.14;29.74;93426.13;5042477;28;20112;-91
2023/03/27 10:59:12;;;;;;;0.10;0.10;;;;;;;19.47;26.82;93419.81;5058805;28;20025;-90
2023/03/27 11:01:41;;;;;;;0.20;0.10;;;;;;;19.16;27.19;93438.13;5021812;28;20042;-91
2023/03/27 11:04:37;;;;;;;0.10;0.10;;;;;;;20.40;27.07;93438.78;5042135;28;20035;-91
2023/03/27 11:07:07;;;;;;;1.77;0.10;;;;;;;19.47;26.52;93441.84;5058754;28;20033;-93
2023/03/27 11:09:38;;;;;;;0.80;0.20;;;;;;;20.07;28.44;93442.69;5058533;28;20090;-92
2023/03/27 11:12:06;;;;;;;0.25;0.10;;;;;;;20.52;30.21;93453.03;5042871;28;20433;-92
2023/03/27 11:14:49;;;;;;;0.20;0.20;;;;;;;19.81;26.95;93448.63;5046089;28;20052;-92
2023/03/27 11:17:32;;;;;;;0.25;0.10;;;;;;;18.75;28.66;93448.13;5045768;28;20016;-92
2023/03/27 11:20:15;;;;;;;0.10;0.10;;;;;;;18.56;27.60;93438.19;5062287;28;20412;-90
2023/03/27 11:22:54;;;;;;;0.17;0.10;;;;;;;20.62;27.41;93468.41;5045676;28;20020;-92
2023/03/27 11:25:30;;;;;;;3.72;0.20;;;;;;;19.87;26.98;93465.81;5045752;28;20067;-93
2023/03/27 11:28:19;;;;;;;0.13;0.10;;;;;;;19.94;26.46;93451.94;5045794;28;20021;-91
2023/03/27 11:30:49;;;;;;;0.10;0.10;;;;;;;20.80;28.65;93465.28;5061773;28;20043;-92
2023/03/27 11:33:24;;;;;;;0.10;0.10;;;;;;;20.97;26.32;93458.75;5045401;28;20090;-92
2023/03/27 11:36:01;;;;;;;0.32;0.20;;;;;;;19.87;29.00;93474.56;5062084;28;20086;-91
2023/03/27 11:38:36;;;;;;;1.38;0.10;;;;;;;19.05;25.98;93456.44;5061838;28;20078;-92
2023/03/27 11:41:02;;;;;;;1.00;0.20;;;;;;;19.25;25.18;93461.06;5045359;28;20028;-91
2023/03/27 11:43:27;;;;;;;0.77;0.10;;;;;;;19.73;27.55;93463.63;5045273;28;20533;-92
2023/03/27 11:46:20;;;;;;;0.15;0.10;;;;;;;19.79;24.83;93462.22;5061634;28;20464;-92
2023/03/27 11:49:14;;;;;;;2.88;0.20;;;;;;;19.59;24.89;93470.19;5045189;28;20024;-92
2023/03/27 11:51:53;;;;;;;0.10;0.10;;;;;;;20.54;31.72;93472.09;5061779;28;20024;-93
2023/03/27 11:54:32;;;;;;;0.52;0.25;;;;;;;20.09;24.56;93464.41;5045663;28;20119;-91
2023/03/27 11:57:00;;;;;;;0.10;0.10;;;;;;;20.92;24.61;93483.78;5044798;28;20126;-95
2023/03/27 12:00:24;;;;;;;0.73;0.20;;;;;;;19.77;27.50;93473.22;5044869;28;20031;-93
2023/03/27 12:03:13;;;;;;;0.40;0.20;;;;;;;19.66;26.89;93485.50;4981621;28;20031;-92
2023/03/27 12:06:05;;;;;;;0.15;0.10;;;;;;;19.59;26.53;93478.16;4965914;28;20463;-93
2023/03/27 12:08:34;;;;;;;0.20;0.20;;;;;;;20.83;27.82;93478.69;5029697;28;20032;-91
2023/03/27 12:11:00;;;;;;;0.25;0.10;;;;;;;20.24;25.83;93476.09;5061386;28;20039;-92
2023/03/27 12:13:52;;;;;;;0.88;0.40;;;;;;;21.14;26.73;93481.50;5044684;28;20027;-94
2023/03/27 12:16:36;;;;;;;0.30;0.10;;;;;;;20.48;27.60;93485.66;5061372;28;20052;-91